createdAt,value
2023-05-03T00:00:03.513Z,56
2023-05-03T00:20:02.748Z,56
2023-05-03T00:40:03.109Z,55
2023-05-03T01:00:02.933Z,56
2023-05-03T01:20:03.278Z,56
2023-05-03T01:40:03.268Z,56
2023-05-03T02:00:03.312Z,57
2023-05-03T02:20:03.537Z,58
2023-05-03T02:40:02.669Z,59
2023-05-03T03:00:02.849Z,60
2023-05-03T03:20:03.387Z,61
2023-05-03T03:40:03.552Z,61
2023-05-03T04:00:03.558Z,62
2023-05-03T04:20:03.128Z,63
2023-05-03T04:40:03.079Z,63
2023-05-03T05:00:03.058Z,62
2023-05-03T05:20:03.206Z,62
2023-05-03T05:40:03.461Z,60
2023-05-03T06:00:03.458Z,58
2023-05-03T06:20:02.876Z,56
2023-05-03T06:40:03.122Z,54
2023-05-03T07:00:03.637Z,51
2023-05-03T07:20:03.642Z,48
2023-05-03T07:40:02.655Z,45
2023-05-03T08:00:03.082Z,41
2023-05-03T08:20:03.492Z,39
2023-05-03T08:40:04.008Z,38
2023-05-03T09:00:03.764Z,36
2023-05-03T09:20:03.145Z,36
2023-05-03T09:40:03.352Z,34
2023-05-03T10:00:03.287Z,33
2023-05-03T10:20:02.967Z,33
2023-05-03T10:40:02.414Z,31
2023-05-03T11:00:02.835Z,31
2023-05-03T11:20:02.477Z,30
2023-05-03T11:40:03.123Z,30
2023-05-03T12:00:02.900Z,30
2023-05-03T12:20:33.492Z,31
2023-05-03T13:00:05.135Z,33
2023-05-03T13:20:03.355Z,34
2023-05-03T13:40:04.179Z,34
2023-05-03T14:00:04.296Z,33
2023-05-03T14:20:03.817Z,34
2023-05-03T14:40:04.489Z,35
2023-05-03T15:00:04.086Z,35
2023-05-03T15:20:03.793Z,35
2023-05-03T15:40:03.490Z,35
2023-05-03T16:00:03.934Z,35
2023-05-03T16:20:03.077Z,35
2023-05-03T16:40:03.311Z,34
2023-05-03T17:00:05.362Z,34
2023-05-03T17:20:04.584Z,34
2023-05-03T17:40:03.957Z,35
2023-05-03T18:00:03.165Z,36
2023-05-03T18:20:03.843Z,38
2023-05-03T18:40:03.459Z,41
2023-05-03T19:00:03.507Z,42
2023-05-03T19:20:04.298Z,44
2023-05-03T19:40:04.702Z,46
2023-05-03T20:00:04.149Z,48
2023-05-03T20:20:04.162Z,50
2023-05-03T20:40:04.333Z,52
2023-05-03T21:00:04.620Z,53
2023-05-03T21:20:03.953Z,54
2023-05-03T21:40:03.757Z,56
2023-05-03T22:00:03.232Z,56
2023-05-03T22:20:02.555Z,57
2023-05-03T22:40:03.506Z,58
2023-05-03T23:00:03.671Z,58
2023-05-03T23:20:03.007Z,59
2023-05-03T23:40:02.708Z,60
